Time;durP1;ratioP1;P1;durP2;ratioP2;P2;SDS_P1;SDS_P2;PMS_P1;PMS_P2;Temp;Humidity;BMP_temperature;BMP_pressure;BME280_temperature;BME280_humidity;BME280_pressure;Samples;Min_cycle;Max_cycle;Signal;HPM_P1;HPM_P2
2022/04/28 05:01:24;;;;;;;19.47;13.70;;;5.70;99.90;;;;;;6084925;23;21144;31
2022/04/28 05:04:06;;;;;;;19.42;12.85;;;5.70;99.90;;;;;;5079542;28;20636;-74
2022/04/28 05:06:51;;;;;;;18.63;13.05;;;5.70;99.90;;;;;;5063636;28;20056;-75
2022/04/28 05:09:22;;;;;;;17.98;13.27;;;5.80;99.90;;;;;;5058536;28;20029;-75
2022/04/28 05:11:48;;;;;;;19.35;13.93;;;5.90;99.90;;;;;;5079438;28;20032;-74
2022/04/28 05:14:29;;;;;;;18.33;13.38;;;5.90;99.90;;;;;;5079464;28;20031;-74
2022/04/28 05:16:57;;;;;;;18.17;13.10;;;6.00;99.90;;;;;;5046566;28;20038;-74
2022/04/28 05:19:36;;;;;;;18.05;13.27;;;6.10;99.90;;;;;;5023840;28;20014;-79
2022/04/28 05:22:02;;;;;;;19.23;12.98;;;6.10;99.90;;;;;;5019633;28;20041;-75
2022/04/28 05:24:33;;;;;;;18.55;13.20;;;6.20;99.90;;;;;;5019209;28;20030;-75
2022/04/28 05:27:17;;;;;;;18.42;13.60;;;6.20;99.90;;;;;;5019568;28;20048;-75
2022/04/28 05:29:49;;;;;;;18.05;13.57;;;6.30;99.90;;;;;;5021130;28;20107;-75
2022/04/28 05:32:33;;;;;;;18.17;12.68;;;6.40;99.90;;;;;;5018933;28;20049;-75
2022/04/28 05:35:08;;;;;;;18.02;13.48;;;6.50;99.90;;;;;;5021177;28;20034;-75
2022/04/28 05:37:35;;;;;;;22.10;13.93;;;6.50;99.90;;;;;;5037587;28;20041;-74
2022/04/28 05:40:04;;;;;;;20.17;12.77;;;6.70;99.90;;;;;;5038876;28;20298;-75
2022/04/28 05:47:59;;;;;;;16.25;12.25;;;7.00;99.90;;;;;;5038984;28;20030;-74
2022/04/28 05:50:26;;;;;;;16.40;12.70;;;7.20;99.90;;;;;;5036917;28;20036;-75
2022/04/28 05:52:53;;;;;;;19.33;12.35;;;7.30;99.90;;;;;;5037631;28;20101;-74
2022/04/28 05:55:19;;;;;;;17.52;11.82;;;7.40;99.90;;;;;;5020753;28;20332;-74
2022/04/28 05:57:44;;;;;;;14.77;11.10;;;7.50;99.90;;;;;;5033682;28;20030;-74
2022/04/28 06:00:12;;;;;;;16.20;11.88;;;7.70;99.90;;;;;;5041562;28;20033;-74
2022/04/28 06:02:41;;;;;;;18.20;12.70;;;7.80;99.90;;;;;;5017680;28;20064;-74
2022/04/28 06:05:11;;;;;;;16.50;11.85;;;8.00;99.90;;;;;;5017766;28;20045;-74
2022/04/28 06:07:38;;;;;;;14.43;10.27;;;8.10;99.90;;;;;;5016939;28;20041;-75
2022/04/28 06:10:03;;;;;;;19.13;11.43;;;8.30;99.90;;;;;;5001107;28;20097;-74
2022/04/28 06:12:30;;;;;;;15.50;10.85;;;8.40;99.90;;;;;;5016299;28;20033;-74
2022/04/28 06:15:24;;;;;;;15.68;10.82;;;8.50;99.90;;;;;;4983207;28;20054;-74
2022/04/28 06:18:10;;;;;;;14.70;10.90;;;8.70;99.90;;;;;;4985749;28;20062;-74
2022/04/28 06:20:37;;;;;;;16.67;10.57;;;8.80;99.90;;;;;;4980489;28;20027;-74
2022/04/28 06:23:02;;;;;;;16.17;10.93;;;8.80;99.90;;;;;;4985342;28;20102;-74
2022/04/28 06:25:33;;;;;;;14.05;10.82;;;8.90;99.90;;;;;;4984191;28;20038;-75
2022/04/28 06:28:01;;;;;;;15.35;10.40;;;9.00;99.90;;;;;;4965181;28;20038;-74
2022/04/28 06:30:27;;;;;;;14.60;10.30;;;9.10;99.90;;;;;;4967598;28;20054;-74
2022/04/28 06:33:03;;;;;;;15.38;10.45;;;9.20;99.90;;;;;;4993759;28;20042;-74
2022/04/28 06:35:44;;;;;;;16.35;10.52;;;9.30;99.90;;;;;;5003799;28;20038;-74
2022/04/28 06:38:12;;;;;;;17.08;10.02;;;9.40;99.90;;;;;;5003996;28;20189;-75
2022/04/28 06:40:39;;;;;;;13.75;10.23;;;9.40;99.90;;;;;;5003343;28;20030;-75
2022/04/28 06:43:05;;;;;;;14.85;10.20;;;9.60;99.90;;;;;;5003524;28;20026;-75
2022/04/28 06:48:57;;;;;;;13.05;8.77;;;9.90;99.90;;;;;;4996853;28;20046;-75
2022/04/28 06:51:52;;;;;;;11.88;8.95;;;10.10;99.90;;;;;;4985694;28;20039;-74
2022/04/28 06:54:34;;;;;;;11.68;9.40;;;10.30;99.90;;;;;;5003136;28;20188;-74
2022/04/28 06:57:00;;;;;;;14.93;9.15;;;10.40;99.90;;;;;;5003387;28;20093;-74
2022/04/28 06:59:29;;;;;;;11.73;9.15;;;10.50;99.90;;;;;;4987298;28;20042;-75
2022/04/28 07:01:55;;;;;;;14.02;9.00;;;10.60;99.90;;;;;;5017791;28;20045;-74
2022/04/28 07:04:21;;;;;;;13.70;9.23;;;10.70;99.90;;;;;;5023612;28;20311;-74
2022/04/28 07:06:47;;;;;;;11.63;9.35;;;10.70;99.90;;;;;;5016075;28;20076;-74
2022/04/28 07:09:13;;;;;;;14.18;9.10;;;10.80;99.90;;;;;;5002999;28;20034;-74
2022/04/28 07:11:39;;;;;;;14.75;9.30;;;10.90;99.90;;;;;;5002982;28;20027;-74
2022/04/28 07:14:27;;;;;;;10.57;8.27;;;11.10;99.90;;;;;;4998511;28;20058;-74
2022/04/28 07:17:11;;;;;;;13.55;9.48;;;11.20;99.90;;;;;;5004040;28;20400;-74
2022/04/28 07:19:50;;;;;;;13.07;9.13;;;11.30;99.90;;;;;;4991452;28;20038;-74
2022/04/28 07:22:16;;;;;;;10.68;8.43;;;11.60;99.90;;;;;;4998247;28;20034;-75
2022/04/28 07:24:42;;;;;;;11.02;8.25;;;11.70;99.90;;;;;;5003456;28;20093;-74
2022/04/28 07:27:08;;;;;;;11.82;8.57;;;11.80;99.30;;;;;;5001930;28;20038;-74
2022/04/28 07:29:34;;;;;;;10.52;8.55;;;12.00;98.80;;;;;;5002595;28;20101;-74
2022/04/28 07:32:09;;;;;;;11.60;8.63;;;12.10;98.40;;;;;;5002052;28;20034;-74
2022/04/28 07:34:53;;;;;;;13.65;8.70;;;12.20;98.30;;;;;;5003845;28;20156;-74
2022/04/28 07:37:37;;;;;;;11.38;7.38;;;12.40;97.80;;;;;;5003241;28;20038;-74
2022/04/28 07:40:23;;;;;;;12.05;8.05;;;12.50;97.20;;;;;;5002814;28;20061;-74
2022/04/28 07:42:57;;;;;;;12.55;8.05;;;12.40;97.00;;;;;;5002469;28;20034;-74
2022/04/28 07:45:23;;;;;;;12.30;7.22;;;12.60;96.80;;;;;;5002067;28;20049;-74
2022/04/28 07:47:50;;;;;;;13.55;7.28;;;12.70;96.50;;;;;;5002017;28;20031;-74
2022/04/28 07:50:23;;;;;;;11.40;7.85;;;12.80;96.00;;;;;;5002212;28;20105;-74
2022/04/28 07:52:50;;;;;;;9.57;7.13;;;13.00;95.90;;;;;;5002183;28;20038;-74
2022/04/28 07:55:15;;;;;;;13.18;7.80;;;13.10;95.50;;;;;;4970174;28;20042;-74
2022/04/28 07:57:43;;;;;;;9.32;6.72;;;13.20;95.20;;;;;;4982317;28;20046;-75
2022/04/28 08:00:13;;;;;;;8.32;6.18;;;13.50;95.10;;;;;;4983803;28;20038;-75
2022/04/28 08:02:50;;;;;;;9.70;6.55;;;13.70;94.50;;;;;;5013031;28;20053;-74
2022/04/28 08:05:19;;;;;;;8.98;6.22;;;13.90;94.70;;;;;;5002179;28;20035;-75
2022/04/28 08:07:45;;;;;;;10.82;6.55;;;14.10;93.90;;;;;;5001310;28;20033;-74
2022/04/28 08:10:12;;;;;;;11.88;5.95;;;14.30;93.50;;;;;;5001781;28;20049;-74
2022/04/28 08:12:38;;;;;;;8.07;5.03;;;14.40;92.70;;;;;;5001597;28;20224;-75
2022/04/28 08:15:18;;;;;;;9.27;4.75;;;14.60;91.80;;;;;;5001401;28;20256;-74
2022/04/28 08:17:44;;;;;;;6.90;4.88;;;14.60;91.40;;;;;;5001549;28;20173;-75
2022/04/28 08:20:10;;;;;;;7.47;4.78;;;14.70;91.00;;;;;;4987743;28;20091;-74
2022/04/28 08:22:36;;;;;;;7.55;4.22;;;14.80;90.70;;;;;;4981639;28;20063;-74
2022/04/28 08:25:02;;;;;;;6.82;4.10;;;15.00;91.00;;;;;;4998365;28;20303;-74
2022/04/28 08:27:28;;;;;;;6.40;4.20;;;15.10;89.90;;;;;;4998601;28;20035;-74
2022/04/28 08:29:53;;;;;;;6.20;4.00;;;15.30;89.20;;;;;;4997952;28;20224;-74
2022/04/28 08:32:22;;;;;;;7.30;4.45;;;15.40;89.30;;;;;;4981634;28;20047;-77
2022/04/28 08:34:48;;;;;;;7.10;4.00;;;15.60;88.30;;;;;;4998066;28;20057;-75
2022/04/28 08:37:14;;;;;;;6.13;3.67;;;15.70;87.60;;;;;;4998344;28;20243;-75
2022/04/28 08:39:40;;;;;;;5.18;3.38;;;15.80;86.00;;;;;;5000750;28;20355;-75
2022/04/28 08:42:11;;;;;;;5.53;3.55;;;15.90;84.80;;;;;;5001341;28;20286;-74
2022/04/28 08:45:00;;;;;;;6.05;3.90;;;16.00;84.80;;;;;;5001731;28;20227;-74
2022/04/28 08:47:38;;;;;;;6.47;3.60;;;16.00;83.10;;;;;;5002325;28;20061;-75
2022/04/28 08:50:25;;;;;;;5.45;2.97;;;16.00;83.90;;;;;;4992177;28;20038;-75
2022/04/28 08:53:07;;;;;;;7.38;3.40;;;16.10;83.20;;;;;;4988423;28;20034;-75
2022/04/28 08:55:35;;;;;;;4.68;3.45;;;16.30;81.70;;;;;;4983945;28;20054;-74
2022/04/28 08:58:02;;;;;;;7.25;2.90;;;16.50;81.30;;;;;;4984272;28;20077;-74
2022/04/28 09:00:32;;;;;;;7.68;3.38;;;16.60;79.90;;;;;;5001127;28;20038;-75
2022/04/28 09:03:17;;;;;;;5.43;3.15;;;16.60;80.20;;;;;;5003207;28;20060;-75
2022/04/28 09:06:23;;;;;;;4.65;2.90;;;16.80;78.60;;;;;;5003329;28;20041;-74
2022/04/28 09:08:52;;;;;;;7.40;3.30;;;16.90;77.90;;;;;;5002585;28;20046;-76
2022/04/28 09:11:45;;;;;;;6.70;3.03;;;17.10;76.60;;;;;;4982461;28;20031;-76
2022/04/28 09:14:31;;;;;;;6.88;3.25;;;17.10;75.60;;;;;;4983270;28;20054;-75
2022/04/28 09:17:03;;;;;;;5.85;2.78;;;17.30;75.30;;;;;;4981434;28;20342;-75
2022/04/28 09:19:35;;;;;;;4.60;2.65;;;17.40;71.80;;;;;;5000296;28;20093;-75
2022/04/28 09:22:13;;;;;;;3.50;2.50;;;17.40;71.70;;;;;;5001266;28;20038;-75
2022/04/28 09:24:44;;;;;;;4.93;2.70;;;17.50;72.10;;;;;;4984691;28;20092;-75
2022/04/28 09:27:14;;;;;;;5.85;2.15;;;17.80;70.20;;;;;;4987856;28;20045;-75
2022/04/28 09:29:40;;;;;;;12.40;2.90;;;17.80;67.50;;;;;;4981328;28;20031;-75
2022/04/28 09:32:10;;;;;;;6.22;2.20;;;17.90;68.40;;;;;;5001763;28;20077;-75
2022/04/28 09:35:15;;;;;;;5.82;2.10;;;18.00;68.80;;;;;;5001741;28;20050;-74
2022/04/28 09:37:52;;;;;;;7.70;2.15;;;18.20;68.40;;;;;;5001049;28;20037;-74
2022/04/28 09:43:03;;;;;;;4.93;2.78;;;18.30;66.40;;;;;;5002019;28;20026;-74
2022/04/28 09:45:39;;;;;;;5.75;2.30;;;18.40;65.50;;;;;;5000774;28;20382;-75
2022/04/28 09:48:06;;;;;;;5.85;2.60;;;18.30;65.90;;;;;;4999724;28;20031;-75
2022/04/28 09:50:40;;;;;;;4.13;2.30;;;18.50;67.30;;;;;;4987578;28;20027;-74
2022/04/28 09:53:29;;;;;;;4.53;2.50;;;18.70;65.70;;;;;;4987152;28;20047;-75
2022/04/28 09:56:19;;;;;;;4.85;2.60;;;18.70;66.10;;;;;;4994322;28;20034;-75
2022/04/28 09:58:59;;;;;;;5.93;2.15;;;18.70;64.60;;;;;;4985827;28;20050;-74
2022/04/28 10:01:27;;;;;;;3.20;2.35;;;18.80;64.70;;;;;;5012489;28;20045;-74
2022/04/28 10:03:53;;;;;;;3.47;2.13;;;18.80;61.80;;;;;;5020711;28;20054;-76
2022/04/28 10:06:25;;;;;;;6.30;2.20;;;18.70;62.40;;;;;;5005273;28;20101;-75
2022/04/28 10:09:11;;;;;;;4.88;2.22;;;18.50;63.30;;;;;;5005263;28;20209;-74
2022/04/28 10:11:38;;;;;;;3.17;1.90;;;18.70;62.60;;;;;;5004635;28;20034;-75
2022/04/28 10:14:05;;;;;;;4.18;2.20;;;18.60;63.80;;;;;;5006218;28;20400;-74
2022/04/28 10:16:31;;;;;;;4.40;2.22;;;18.70;64.50;;;;;;5004048;28;20227;-74
2022/04/28 10:19:11;;;;;;;4.85;2.30;;;18.60;62.00;;;;;;5004460;28;20060;-75
2022/04/28 10:21:44;;;;;;;4.03;2.30;;;18.70;64.10;;;;;;5004219;28;20030;-75
2022/04/28 10:33:16;;;;;;;3.10;2.08;;;19.20;62.60;;;;;;5004985;28;20077;-75
2022/04/28 10:35:53;;;;;;;5.10;2.25;;;19.20;61.40;;;;;;5000910;28;20328;-75
2022/04/28 10:38:26;;;;;;;4.95;2.40;;;19.00;61.80;;;;;;5005908;28;20053;-74
2022/04/28 10:41:02;;;;;;;4.55;2.35;;;18.90;62.50;;;;;;5004112;28;20351;-75
2022/04/28 10:43:33;;;;;;;4.22;2.05;;;18.90;63.30;;;;;;5001739;28;20034;-75
2022/04/28 10:46:08;;;;;;;2.80;1.75;;;19.10;62.70;;;;;;5004993;28;20275;-75
2022/04/28 10:48:38;;;;;;;5.00;2.40;;;19.20;62.10;;;;;;5005479;28;20228;-75
2022/04/28 10:51:12;;;;;;;6.25;2.40;;;19.30;62.40;;;;;;4991784;28;20035;-75
2022/04/28 10:54:19;;;;;;;4.97;2.30;;;19.50;61.30;;;;;;4985780;28;20102;-78
2022/04/28 10:56:54;;;;;;;3.33;2.17;;;19.40;61.40;;;;;;4951507;29;20081;-75
2022/04/28 10:59:46;;;;;;;4.13;2.10;;;19.50;61.40;;;;;;4992545;28;20255;-75
2022/04/28 11:02:11;;;;;;;10.18;2.17;;;19.50;61.40;;;;;;5003987;28;20046;-75
2022/04/28 11:04:39;;;;;;;3.50;2.13;;;19.60;61.20;;;;;;5004556;28;20026;-76
2022/04/28 11:07:07;;;;;;;7.07;2.30;;;19.70;62.50;;;;;;5002174;28;20034;-75
2022/04/28 11:09:40;;;;;;;7.10;2.33;;;19.80;61.50;;;;;;5004793;28;20041;-75
2022/04/28 11:12:20;;;;;;;3.70;2.00;;;20.00;61.60;;;;;;5003540;28;20022;-76
2022/04/28 11:15:00;;;;;;;4.25;2.13;;;20.10;60.20;;;;;;5004182;28;20037;-76
2022/04/28 11:17:31;;;;;;;3.75;2.28;;;20.30;60.80;;;;;;5004749;28;20042;-75
2022/04/28 11:20:02;;;;;;;4.65;2.00;;;20.60;59.10;;;;;;5000643;28;20102;-75
2022/04/28 11:22:28;;;;;;;5.07;2.20;;;21.10;59.50;;;;;;4986194;28;20058;-75
2022/04/28 11:24:56;;;;;;;5.05;2.22;;;21.50;57.50;;;;;;5004569;28;20030;-74
2022/04/28 11:27:45;;;;;;;3.53;2.22;;;22.00;56.00;;;;;;4998167;28;20019;-75
2022/04/28 11:30:17;;;;;;;4.38;2.00;;;22.70;56.50;;;;;;4999879;28;20033;-74
2022/04/28 11:32:51;;;;;;;3.95;2.00;;;23.20;56.70;;;;;;5003474;28;20026;-75
2022/04/28 11:35:18;;;;;;;3.95;2.20;;;24.20;55.50;;;;;;5003688;28;20094;-77
2022/04/28 11:37:45;;;;;;;5.50;1.80;;;24.90;54.10;;;;;;5003737;28;20049;-74
2022/04/28 11:40:16;;;;;;;4.25;2.08;;;25.60;53.40;;;;;;4999707;28;20061;-76
2022/04/28 11:42:43;;;;;;;3.85;1.90;;;26.20;51.10;;;;;;4995498;28;20118;-74
2022/04/28 11:45:09;;;;;;;3.33;1.50;;;26.60;50.10;;;;;;5000560;28;20034;-75
2022/04/28 11:47:46;;;;;;;2.92;1.67;;;27.10;51.10;;;;;;5003571;28;20362;-75
2022/04/28 11:50:22;;;;;;;4.20;1.80;;;27.30;48.70;;;;;;4984917;28;20026;-75
2022/04/28 11:53:05;;;;;;;2.50;1.42;;;28.50;49.80;;;;;;4984267;28;20042;-74
2022/04/28 11:55:35;;;;;;;3.83;1.77;;;29.10;49.60;;;;;;4985241;28;20101;-74
2022/04/28 11:58:02;;;;;;;4.70;2.03;;;29.40;47.20;;;;;;4983993;28;20058;-75
2022/04/28 12:00:34;;;;;;;3.70;1.48;;;29.70;47.00;;;;;;4985340;28;20047;-75
2022/04/28 12:03:03;;;;;;;2.45;1.42;;;29.00;46.90;;;;;;4984301;28;20062;-75
2022/04/28 12:05:32;;;;;;;2.40;1.67;;;28.80;47.30;;;;;;4984653;28;20039;-75
2022/04/28 12:07:58;;;;;;;3.92;1.40;;;29.20;47.50;;;;;;4984446;28;20236;-75
2022/04/28 12:16:04;;;;;;;3.65;1.60;;;31.50;45.30;;;;;;5003765;28;20065;-76
2022/04/28 12:21:22;;;;;;;4.18;1.30;;;31.50;44.80;;;;;;5003988;28;20041;-75
2022/04/28 12:23:55;;;;;;;2.83;1.60;;;32.00;44.90;;;;;;5003411;28;20034;-75
2022/04/28 12:26:21;;;;;;;3.95;1.30;;;32.90;44.00;;;;;;5000894;28;20054;-75
2022/04/28 12:28:48;;;;;;;4.93;1.40;;;33.40;44.00;;;;;;5002839;28;20097;-76
2022/04/28 12:31:24;;;;;;;3.17;1.60;;;33.80;43.60;;;;;;5003247;28;20042;-76
2022/04/28 12:33:50;;;;;;;3.92;1.35;;;33.70;43.90;;;;;;5003343;28;20231;-76
2022/04/28 12:36:16;;;;;;;2.92;1.67;;;34.30;42.10;;;;;;5003929;28;20034;-75
2022/04/28 12:38:52;;;;;;;3.10;1.10;;;35.50;42.40;;;;;;5003184;28;20037;-76
2022/04/28 12:41:24;;;;;;;3.83;1.13;;;36.10;41.20;;;;;;5003790;28;20030;-75
2022/04/28 12:43:56;;;;;;;4.25;1.45;;;36.20;40.70;;;;;;5003304;28;20038;-76
2022/04/28 12:46:44;;;;;;;2.55;1.73;;;35.90;39.90;;;;;;5003117;28;20054;-75
2022/04/28 12:49:12;;;;;;;2.70;1.40;;;36.00;40.40;;;;;;5003397;28;20102;-75
2022/04/28 12:51:56;;;;;;;1.95;1.20;;;36.10;40.50;;;;;;5003419;28;20030;-74
2022/04/28 12:54:25;;;;;;;2.45;1.30;;;35.60;41.90;;;;;;4983958;28;20293;-74
2022/04/28 12:57:00;;;;;;;2.90;1.27;;;35.70;39.50;;;;;;4984105;28;20033;-73
2022/04/28 12:59:31;;;;;;;2.40;1.10;;;35.10;40.00;;;;;;4984023;28;20249;-76
2022/04/28 13:01:58;;;;;;;2.10;1.20;;;35.50;39.50;;;;;;4982561;28;20046;-74
2022/04/28 13:04:26;;;;;;;3.03;1.23;;;35.80;39.70;;;;;;4983931;28;20034;-74
2022/04/28 13:06:53;;;;;;;2.17;1.30;;;35.30;39.20;;;;;;4985600;28;20092;-75
2022/04/28 13:09:20;;;;;;;3.60;1.20;;;36.70;40.70;;;;;;5002439;28;20300;-75
2022/04/28 13:11:49;;;;;;;4.47;1.30;;;37.80;40.00;;;;;;5002720;28;20022;-75
2022/04/28 13:14:17;;;;;;;4.78;1.70;;;38.00;39.10;;;;;;5003474;28;20034;-75
2022/04/28 13:16:44;;;;;;;3.50;1.50;;;37.70;38.20;;;;;;5002295;28;20162;-76
2022/04/28 13:19:11;;;;;;;2.95;1.42;;;37.00;40.50;;;;;;5003372;28;20022;-75
2022/04/28 13:21:39;;;;;;;4.07;1.70;;;35.90;38.20;;;;;;5003422;28;20046;-75
2022/04/28 13:24:05;;;;;;;;;;;35.00;38.70;;;;;;5003990;28;20098;-76
2022/04/28 13:26:31;;;;;;;2.92;1.50;;;35.20;40.50;;;;;;5007271;28;20012;-76
2022/04/28 13:28:58;;;;;;;2.88;1.30;;;36.50;38.50;;;;;;5006555;28;20097;-76
2022/04/28 13:31:24;;;;;;;6.50;1.80;;;36.70;38.20;;;;;;5006749;28;20046;-75
2022/04/28 13:33:52;;;;;;;2.08;1.20;;;36.40;38.40;;;;;;5006498;28;20134;-75
2022/04/28 13:36:18;;;;;;;1.90;1.10;;;36.90;39.10;;;;;;5006756;28;20034;-75
2022/04/28 13:38:45;;;;;;;2.17;1.20;;;37.40;38.40;;;;;;5006522;28;20034;-76
2022/04/28 13:41:12;;;;;;;3.47;1.30;;;38.40;36.80;;;;;;5006901;28;20057;-73
2022/04/28 13:43:38;;;;;;;2.10;1.35;;;38.30;38.40;;;;;;5006886;28;20057;-75
2022/04/28 13:46:06;;;;;;;3.55;1.40;;;38.10;37.10;;;;;;5005816;28;20038;-75
2022/04/28 13:48:33;;;;;;;2.35;1.15;;;37.90;37.20;;;;;;5006465;28;20026;-76
2022/04/28 13:51:00;;;;;;;4.45;1.20;;;37.40;37.10;;;;;;5004879;28;20102;-75
2022/04/28 13:53:29;;;;;;;2.25;1.40;;;37.10;37.60;;;;;;5006797;28;20030;-75
2022/04/28 13:56:03;;;;;;;2.20;1.10;;;37.30;38.90;;;;;;5006225;28;20026;-74
2022/04/28 13:58:29;;;;;;;2.90;1.38;;;37.80;37.70;;;;;;5006158;28;20034;-75
2022/04/28 14:00:56;;;;;;;3.30;1.35;;;37.30;36.70;;;;;;5004391;28;20063;-75
2022/04/28 14:03:28;;;;;;;3.35;1.60;;;37.10;38.10;;;;;;5005992;28;20054;-75
2022/04/28 14:05:55;;;;;;;2.30;1.40;;;37.50;37.40;;;;;;5005846;28;20026;-75
2022/04/28 14:08:22;;;;;;;2.10;1.55;;;38.00;37.90;;;;;;5006466;28;20061;-75
2022/04/28 14:10:48;;;;;;;3.45;1.60;;;38.80;37.40;;;;;;5005890;28;20038;-75
2022/04/28 14:13:14;;;;;;;3.45;1.35;;;39.80;36.80;;;;;;5006169;28;20038;-75
2022/04/28 14:15:40;;;;;;;2.60;1.30;;;38.80;36.40;;;;;;5005414;28;20109;-75
2022/04/28 14:18:07;;;;;;;2.85;1.20;;;38.70;36.80;;;;;;5006140;28;20375;-75
2022/04/28 14:20:34;;;;;;;2.13;1.13;;;39.40;38.30;;;;;;5006346;28;20033;-74
2022/04/28 14:23:01;;;;;;;4.13;1.20;;;39.20;36.10;;;;;;5005491;28;20203;-74
2022/04/28 14:25:27;;;;;;;2.35;1.40;;;38.70;36.90;;;;;;5006105;28;20049;-77
2022/04/28 14:27:53;;;;;;;2.58;1.35;;;38.90;36.90;;;;;;5006255;28;20026;-74
2022/04/28 14:30:20;;;;;;;2.50;1.35;;;39.70;36.20;;;;;;5005270;28;20038;-74
2022/04/28 14:32:46;;;;;;;2.33;1.50;;;39.00;36.50;;;;;;5005387;28;20049;-75
2022/04/28 14:35:13;;;;;;;2.53;1.30;;;39.00;39.00;;;;;;5005137;28;20090;-74
2022/04/28 14:37:41;;;;;;;2.10;1.20;;;39.10;36.50;;;;;;5005618;28;20072;-75
2022/04/28 14:40:09;;;;;;;2.53;1.40;;;39.90;36.30;;;;;;5003552;28;20363;-75
2022/04/28 14:42:36;;;;;;;3.72;1.38;;;39.40;37.50;;;;;;5005279;28;20220;-75
2022/04/28 14:45:03;;;;;;;2.50;1.35;;;39.80;37.80;;;;;;5005287;28;20026;-74
2022/04/28 14:47:29;;;;;;;2.47;1.20;;;40.20;37.00;;;;;;5005646;28;20093;-75
2022/04/28 14:52:39;;;;;;;2.58;0.98;;;41.80;36.60;;;;;;5005347;28;20042;-75
2022/04/28 14:55:07;;;;;;;2.17;1.48;;;41.70;35.80;;;;;;5005202;28;20217;-74
2022/04/28 14:57:38;;;;;;;1.75;1.08;;;41.10;35.60;;;;;;5005248;28;20034;-74
2022/04/28 15:00:07;;;;;;;1.95;1.08;;;39.40;36.40;;;;;;5004675;28;20034;-74
2022/04/28 15:02:33;;;;;;;3.03;1.35;;;39.60;36.90;;;;;;5005235;28;20125;-74
2022/04/28 15:04:59;;;;;;;2.30;1.23;;;40.80;36.50;;;;;;5004812;28;20034;-74
2022/04/28 15:07:25;;;;;;;2.47;1.20;;;40.80;36.80;;;;;;5001384;28;20307;-75
2022/04/28 15:09:51;;;;;;;2.03;1.35;;;40.70;35.40;;;;;;5003728;28;20308;-75
2022/04/28 15:12:17;;;;;;;2.17;1.30;;;40.50;35.90;;;;;;5004535;28;20081;-76
2022/04/28 15:14:44;;;;;;;3.35;1.40;;;40.40;35.90;;;;;;5005302;28;20053;-75
2022/04/28 15:17:11;;;;;;;2.20;1.50;;;40.60;35.50;;;;;;4987482;28;20050;-75
2022/04/28 15:19:38;;;;;;;1.85;1.20;;;41.00;35.40;;;;;;4985724;28;20090;-75
2022/04/28 15:22:05;;;;;;;2.47;1.40;;;40.50;36.00;;;;;;4984558;28;20030;-74
2022/04/28 15:24:31;;;;;;;2.65;1.42;;;40.60;37.10;;;;;;5004149;28;20216;-75
2022/04/28 15:26:57;;;;;;;1.85;1.38;;;40.10;36.20;;;;;;5004293;28;20105;-75
2022/04/28 15:29:23;;;;;;;2.80;1.20;;;39.30;36.60;;;;;;5004941;28;20039;-75
2022/04/28 15:31:50;;;;;;;2.97;1.40;;;40.20;35.70;;;;;;5003973;28;20038;-78
2022/04/28 15:34:16;;;;;;;3.10;1.48;;;41.40;35.80;;;;;;5004203;28;20328;-75
2022/04/28 15:36:43;;;;;;;3.60;1.73;;;40.40;35.90;;;;;;5003604;28;20258;-75
2022/04/28 15:39:11;;;;;;;1.95;1.13;;;40.10;36.20;;;;;;5002295;28;20332;-75
2022/04/28 15:41:38;;;;;;;2.28;1.40;;;40.20;37.50;;;;;;5000104;28;20029;-75
2022/04/28 15:44:05;;;;;;;1.85;1.30;;;39.90;35.70;;;;;;5003158;28;20034;-75
2022/04/28 15:46:37;;;;;;;2.50;1.70;;;39.10;37.80;;;;;;5002720;28;20035;-74
2022/04/28 15:49:05;;;;;;;2.85;1.67;;;38.60;36.10;;;;;;5003494;28;20105;-74
2022/04/28 15:51:30;;;;;;;2.92;1.70;;;38.80;36.50;;;;;;5004013;28;20038;-74
2022/04/28 15:53:56;;;;;;;4.30;1.48;;;38.50;35.80;;;;;;5001677;28;20324;-75
2022/04/28 15:56:22;;;;;;;2.08;1.40;;;38.20;37.00;;;;;;5003062;28;20069;-74
2022/04/28 15:58:49;;;;;;;2.00;1.38;;;38.70;36.00;;;;;;5003393;28;20082;-74
2022/04/28 16:01:19;;;;;;;2.58;1.08;;;39.00;35.60;;;;;;5003037;28;20042;-75
2022/04/28 16:03:47;;;;;;;2.38;1.25;;;39.20;37.60;;;;;;5003679;28;20109;-75
2022/04/28 16:06:13;;;;;;;2.17;1.40;;;39.80;35.60;;;;;;5003000;28;20034;-75
2022/04/28 16:08:39;;;;;;;2.17;1.33;;;40.40;35.30;;;;;;5003505;28;20080;-74
2022/04/28 16:11:05;;;;;;;3.55;1.50;;;40.70;35.90;;;;;;5002914;28;20026;-75
2022/04/28 16:13:31;;;;;;;2.20;1.27;;;39.20;35.10;;;;;;5003503;28;20065;-75
2022/04/28 16:15:57;;;;;;;3.70;1.30;;;39.90;35.00;;;;;;5002247;28;20045;-75
2022/04/28 16:18:22;;;;;;;4.18;1.25;;;38.70;34.90;;;;;;5001918;28;20037;-75
2022/04/28 16:20:48;;;;;;;2.40;1.40;;;37.70;36.90;;;;;;5003133;28;20308;-75
2022/04/28 16:23:14;;;;;;;2.38;1.40;;;37.90;37.30;;;;;;5003150;28;20034;-75
2022/04/28 16:25:40;;;;;;;3.50;1.45;;;38.40;36.50;;;;;;5003536;28;20022;-74
2022/04/28 16:28:09;;;;;;;2.80;1.40;;;38.50;35.80;;;;;;5002125;28;20118;-75
2022/04/28 16:30:36;;;;;;;2.63;1.40;;;38.20;38.00;;;;;;5002867;28;20243;-74
2022/04/28 16:33:03;;;;;;;3.55;1.30;;;38.40;36.20;;;;;;4999757;28;20038;-75
2022/04/28 16:35:29;;;;;;;2.45;1.40;;;38.20;36.10;;;;;;5003067;28;20030;-75
2022/04/28 16:37:59;;;;;;;3.08;1.25;;;38.00;36.60;;;;;;5002589;28;20041;-75
2022/04/28 16:40:25;;;;;;;2.10;1.30;;;37.70;36.50;;;;;;5003036;28;20042;-75
2022/04/28 16:42:51;;;;;;;2.55;1.40;;;37.60;38.10;;;;;;5003012;28;20093;-75
2022/04/28 16:45:17;;;;;;;3.10;1.45;;;37.20;36.10;;;;;;5002373;28;20050;-75
2022/04/28 16:47:43;;;;;;;2.28;1.55;;;36.80;35.80;;;;;;5001391;28;20022;-75
2022/04/28 16:50:10;;;;;;;5.78;1.48;;;36.10;36.40;;;;;;5002303;28;20049;-75
2022/04/28 16:52:36;;;;;;;3.10;1.40;;;35.90;37.40;;;;;;5002863;28;20038;-75
2022/04/28 16:55:02;;;;;;;3.67;1.30;;;35.30;36.90;;;;;;5002372;28;20024;-75
2022/04/28 16:57:28;;;;;;;4.15;1.70;;;33.60;38.20;;;;;;5003087;28;20094;-75
2022/04/28 16:59:54;;;;;;;5.03;1.95;;;32.00;39.70;;;;;;5002158;28;20030;-74
2022/04/28 17:02:19;;;;;;;3.50;2.08;;;30.50;41.70;;;;;;5000902;28;20058;-74
2022/04/28 17:04:47;;;;;;;2.67;1.48;;;29.40;41.50;;;;;;4992130;28;20030;-75
2022/04/28 17:07:12;;;;;;;3.20;1.88;;;28.00;43.20;;;;;;5002165;28;20034;-76
2022/04/28 17:09:38;;;;;;;4.53;1.73;;;27.30;43.90;;;;;;4999545;28;20193;-74
2022/04/28 17:12:05;;;;;;;2.65;1.67;;;26.50;44.80;;;;;;5001870;28;20304;-74
2022/04/28 17:14:35;;;;;;;3.10;1.73;;;25.80;46.90;;;;;;5002989;28;20253;-73
2022/04/28 17:17:03;;;;;;;3.40;2.00;;;25.50;46.40;;;;;;5001902;28;20249;-74
2022/04/28 17:19:30;;;;;;;3.20;1.95;;;25.10;45.70;;;;;;5000721;28;20041;-73
2022/04/28 17:21:57;;;;;;;3.17;1.55;;;24.50;46.20;;;;;;5001629;28;20193;-74
2022/04/28 17:24:23;;;;;;;4.43;2.38;;;24.20;48.90;;;;;;5002492;28;20037;-73
2022/04/28 17:26:51;;;;;;;4.63;1.80;;;24.00;48.00;;;;;;5002382;28;20057;-74
2022/04/28 17:29:20;;;;;;;5.20;2.20;;;23.80;48.60;;;;;;5001067;28;20089;-73
2022/04/28 17:31:46;;;;;;;10.18;3.33;;;23.50;48.30;;;;;;5002084;28;20050;-74
2022/04/28 17:34:13;;;;;;;6.35;2.38;;;23.20;49.00;;;;;;5001722;28;20042;-74
2022/04/28 17:36:40;;;;;;;6.55;3.22;;;23.20;50.90;;;;;;5002705;28;20044;-74
2022/04/28 17:39:06;;;;;;;4.57;2.28;;;23.40;48.20;;;;;;5002086;28;20061;-74
2022/04/28 17:41:32;;;;;;;4.15;2.55;;;23.40;48.10;;;;;;5002380;28;20058;-74
2022/04/28 17:43:59;;;;;;;3.35;1.75;;;23.20;49.70;;;;;;5002371;28;20034;-74
2022/04/28 17:46:25;;;;;;;4.50;1.90;;;22.90;48.70;;;;;;4999650;28;20217;-74
2022/04/28 17:48:51;;;;;;;3.42;2.00;;;22.60;51.00;;;;;;5002311;28;20049;-73
2022/04/28 17:51:17;;;;;;;3.95;2.15;;;22.40;51.40;;;;;;5002212;28;20027;-75
2022/04/28 17:53:43;;;;;;;2.88;1.83;;;22.20;50.80;;;;;;5002389;28;20058;-75
2022/04/28 18:01:40;;;;;;;5.38;2.20;;;21.60;51.60;;;;;;4998283;28;20062;-75
2022/04/28 18:04:06;;;;;;;4.10;2.08;;;21.30;52.10;;;;;;5001774;28;20038;-75
2022/04/28 18:06:33;;;;;;;4.35;1.95;;;21.10;52.90;;;;;;5001108;28;20045;-75
2022/04/28 18:08:59;;;;;;;4.22;2.22;;;20.80;52.20;;;;;;5000936;28;20028;-76
2022/04/28 18:11:25;;;;;;;4.32;2.05;;;20.60;52.40;;;;;;5004876;28;20105;-75
2022/04/28 18:13:52;;;;;;;3.53;2.10;;;20.40;52.70;;;;;;5006161;28;20030;-74
2022/04/28 18:16:23;;;;;;;3.80;1.80;;;20.20;53.30;;;;;;5002439;28;20471;-74
2022/04/28 18:18:49;;;;;;;4.05;1.88;;;20.00;54.60;;;;;;5004733;28;20027;-73
2022/04/28 18:21:16;;;;;;;4.07;2.35;;;19.90;54.70;;;;;;5005244;28;20040;-75
2022/04/28 18:23:43;;;;;;;3.17;2.00;;;19.80;54.00;;;;;;5006141;28;20061;-75
2022/04/28 18:26:10;;;;;;;3.35;2.10;;;19.50;54.80;;;;;;5005139;28;20022;-74
2022/04/28 18:28:41;;;;;;;4.43;2.05;;;19.30;56.40;;;;;;5002284;28;20223;-74
2022/04/28 18:31:09;;;;;;;5.68;2.50;;;19.10;55.60;;;;;;5003131;28;20232;-74
2022/04/28 18:33:35;;;;;;;3.45;2.13;;;19.00;56.10;;;;;;5005189;28;20228;-77
2022/04/28 18:44:29;;;;;;;5.07;2.40;;;18.50;57.40;;;;;;5003568;28;20061;-75
2022/04/28 18:47:00;;;;;;;4.68;2.40;;;18.40;57.30;;;;;;5004738;28;20328;-75